createdAt,value
2018-11-26T00:00:33.432Z,50.97
2018-11-26T00:03:01.854Z,51.73
2018-11-26T00:05:30.162Z,53.80
2018-11-26T00:07:58.515Z,54.03
2018-11-26T00:10:38.521Z,55.17
2018-11-26T00:13:06.892Z,54.60
2018-11-26T00:15:35.315Z,53.70
2018-11-26T00:18:03.655Z,51.43
2018-11-26T00:20:31.973Z,51.73
2018-11-26T00:23:00.362Z,53.67
2018-11-26T00:25:28.662Z,55.87
2018-11-26T00:27:57.061Z,59.90
2018-11-26T00:30:25.387Z,59.17
2018-11-26T00:32:53.706Z,59.77
2018-11-26T00:35:28.489Z,65.93
2018-11-26T00:37:56.800Z,64.87
2018-11-26T00:40:25.178Z,64.53
2018-11-26T00:42:53.539Z,63.47
2018-11-26T00:45:21.873Z,61.63
2018-11-26T00:47:50.197Z,62.33
2018-11-26T00:50:18.595Z,63.93
2018-11-26T00:52:46.917Z,64.73
2018-11-26T00:55:15.258Z,65.30
2018-11-26T00:57:43.611Z,64.67
2018-11-26T01:00:12.625Z,65.60
2018-11-26T01:02:40.993Z,62.40
2018-11-26T01:05:15.986Z,63.83
2018-11-26T01:07:44.332Z,64.27
2018-11-26T01:10:12.666Z,67.60
2018-11-26T01:12:41.052Z,62.27
2018-11-26T01:15:09.063Z,59.33
2018-11-26T01:17:37.988Z,63.77
2018-11-26T01:20:06.619Z,61.60
2018-11-26T01:22:34.934Z,61.43
2018-11-26T01:25:03.270Z,58.53
2018-11-26T01:27:31.582Z,64.47
2018-11-26T01:29:59.895Z,62.97
2018-11-26T01:32:28.375Z,60.43
2018-11-26T01:34:56.649Z,59.40
2018-11-26T01:37:24.927Z,60.07
2018-11-26T01:39:53.248Z,59.87
2018-11-26T01:42:22.494Z,57.90
2018-11-26T01:44:50.873Z,61.80
2018-11-26T01:47:19.169Z,61.83
2018-11-26T01:49:47.446Z,63.23
2018-11-26T01:52:15.763Z,59.30
2018-11-26T01:54:44.437Z,59.43
2018-11-26T01:57:12.782Z,61.83
2018-11-26T01:59:41.088Z,63.30
2018-11-26T02:02:09.441Z,61.73
2018-11-26T02:04:37.747Z,57.37
2018-11-26T02:07:06.130Z,60.60
2018-11-26T02:09:34.463Z,60.20
2018-11-26T02:12:02.828Z,62.17
2018-11-26T02:14:31.173Z,55.63
2018-11-26T02:16:59.510Z,56.50
2018-11-26T02:19:27.817Z,51.90
2018-11-26T02:21:56.098Z,50.07
2018-11-26T02:24:24.426Z,53.33
2018-11-26T02:26:52.786Z,48.70
2018-11-26T02:29:21.100Z,50.07
2018-11-26T02:31:49.421Z,50.10
2018-11-26T02:34:17.738Z,51.17
2018-11-26T02:36:46.059Z,48.57
2018-11-26T02:39:14.354Z,48.00
2018-11-26T02:41:42.720Z,51.30
2018-11-26T02:44:11.045Z,48.00
2018-11-26T02:46:39.346Z,49.10
2018-11-26T02:49:07.649Z,46.80
2018-11-26T02:51:35.944Z,49.27
2018-11-26T02:54:04.330Z,51.33
2018-11-26T02:56:32.636Z,45.63
2018-11-26T02:59:00.947Z,48.70
2018-11-26T03:01:29.202Z,47.17
2018-11-26T03:03:57.509Z,45.30
2018-11-26T03:06:25.842Z,41.80
2018-11-26T03:08:54.153Z,42.93
2018-11-26T03:11:22.447Z,41.13
2018-11-26T03:13:50.744Z,45.27
2018-11-26T03:16:19.023Z,43.20
2018-11-26T03:18:47.351Z,44.67
2018-11-26T03:21:15.755Z,48.30
2018-11-26T03:23:44.061Z,46.73
2018-11-26T03:26:12.616Z,45.00
2018-11-26T03:28:40.950Z,46.47
2018-11-26T03:31:09.291Z,43.07
2018-11-26T03:33:37.756Z,49.77
2018-11-26T03:36:06.627Z,45.30
2018-11-26T03:38:50.457Z,44.33
2018-11-26T03:41:18.795Z,46.37
2018-11-26T03:43:47.062Z,44.10
2018-11-26T03:46:15.390Z,47.63
2018-11-26T03:48:43.646Z,49.03
2018-11-26T03:51:11.976Z,48.60
2018-11-26T03:53:40.324Z,45.70
2018-11-26T03:56:08.610Z,47.00
2018-11-26T03:58:36.878Z,46.37
2018-11-26T04:01:05.283Z,43.93
2018-11-26T04:03:33.548Z,43.27
2018-11-26T04:06:01.851Z,46.93
2018-11-26T04:08:30.122Z,46.47
2018-11-26T04:10:58.425Z,44.80
2018-11-26T04:13:26.681Z,46.17
2018-11-26T04:15:54.966Z,48.13
2018-11-26T04:18:23.294Z,48.27
2018-11-26T04:20:51.598Z,42.73
2018-11-26T04:23:19.883Z,41.47
2018-11-26T04:25:48.170Z,41.77
2018-11-26T04:28:16.413Z,44.63
2018-11-26T04:30:44.726Z,41.07
2018-11-26T04:33:13.007Z,44.03
2018-11-26T04:35:41.312Z,41.27
2018-11-26T04:38:09.616Z,40.40
2018-11-26T04:40:37.908Z,38.87
2018-11-26T04:43:06.282Z,42.17
2018-11-26T04:45:34.573Z,45.10
2018-11-26T04:48:02.851Z,41.63
2018-11-26T04:50:31.193Z,39.30
2018-11-26T04:52:59.503Z,40.83
2018-11-26T04:55:27.779Z,43.23
2018-11-26T04:57:56.110Z,42.80
2018-11-26T05:00:24.458Z,39.13
2018-11-26T05:02:52.817Z,42.93
2018-11-26T05:05:21.138Z,39.47
2018-11-26T05:07:49.439Z,43.10
2018-11-26T05:10:17.704Z,40.23
2018-11-26T05:12:46.070Z,42.50
2018-11-26T05:15:14.382Z,42.13
2018-11-26T05:17:42.729Z,43.17
2018-11-26T05:20:13.813Z,42.60
2018-11-26T05:22:42.279Z,40.97
2018-11-26T05:25:11.300Z,42.03
2018-11-26T05:27:40.341Z,44.03
2018-11-26T05:30:12.530Z,44.63
2018-11-26T05:32:40.976Z,44.77
2018-11-26T05:35:10.393Z,42.83
2018-11-26T05:37:38.770Z,44.87
2018-11-26T05:40:11.138Z,43.90
2018-11-26T05:42:39.553Z,45.23
2018-11-26T05:45:12.813Z,44.97
2018-11-26T05:47:41.171Z,48.10
2018-11-26T05:50:10.727Z,47.53
2018-11-26T05:52:39.622Z,44.37
2018-11-26T05:55:12.332Z,47.50
2018-11-26T05:57:40.608Z,47.27
2018-11-26T06:00:12.846Z,49.53
2018-11-26T06:02:41.119Z,51.47
2018-11-26T06:05:09.705Z,49.63
2018-11-26T06:07:38.079Z,51.87
2018-11-26T06:10:08.046Z,50.40
2018-11-26T06:12:36.350Z,46.57
2018-11-26T06:15:05.812Z,49.83
2018-11-26T06:17:34.094Z,53.43
2018-11-26T06:20:02.395Z,54.90
2018-11-26T06:22:30.710Z,48.63
2018-11-26T06:24:59.018Z,51.47
2018-11-26T06:27:27.297Z,48.90
2018-11-26T06:29:55.777Z,51.83
2018-11-26T06:32:24.058Z,51.00
2018-11-26T06:34:52.357Z,52.17
2018-11-26T06:37:20.630Z,54.40
2018-11-26T06:39:48.952Z,51.97
2018-11-26T06:42:17.215Z,52.20
2018-11-26T06:44:45.562Z,53.83
2018-11-26T06:47:13.872Z,52.17
2018-11-26T06:49:42.150Z,50.90
2018-11-26T06:52:10.434Z,51.27
2018-11-26T06:54:38.694Z,54.07
2018-11-26T06:57:07.478Z,52.43
2018-11-26T06:59:35.952Z,54.40
2018-11-26T07:02:04.250Z,57.00
2018-11-26T07:04:32.637Z,58.40
2018-11-26T07:07:01.462Z,51.20
2018-11-26T07:09:29.912Z,54.20
2018-11-26T07:11:58.203Z,53.23
2018-11-26T07:14:26.684Z,56.10
2018-11-26T07:16:55.086Z,60.50
2018-11-26T07:19:23.360Z,56.77
2018-11-26T07:21:51.670Z,55.27
2018-11-26T07:24:20.087Z,53.30
2018-11-26T07:26:48.362Z,54.33
2018-11-26T07:29:19.760Z,52.83
2018-11-26T07:31:45.222Z,55.93
2018-11-26T07:34:13.843Z,53.90
2018-11-26T07:36:42.138Z,62.00
2018-11-26T07:39:10.495Z,59.50
2018-11-26T07:41:39.898Z,60.47
2018-11-26T07:44:09.722Z,55.13
2018-11-26T07:46:38.089Z,55.60
2018-11-26T07:49:06.776Z,53.53
2018-11-26T07:51:37.161Z,51.03
2018-11-26T07:54:05.907Z,50.83
2018-11-26T07:56:34.235Z,51.40
2018-11-26T07:59:02.570Z,52.67
2018-11-26T08:01:30.877Z,54.70
2018-11-26T08:03:59.225Z,50.63
2018-11-26T08:06:28.192Z,55.97
2018-11-26T08:08:56.586Z,56.20
2018-11-26T08:11:24.906Z,57.43
2018-11-26T08:13:53.269Z,51.87
2018-11-26T08:16:21.604Z,50.30
2018-11-26T08:18:50.422Z,52.87
2018-11-26T08:21:18.793Z,59.90
2018-11-26T08:23:47.967Z,47.80
2018-11-26T08:26:16.253Z,51.50
2018-11-26T08:28:45.243Z,48.27
2018-11-26T08:31:13.513Z,51.57
2018-11-26T08:33:41.834Z,50.00
2018-11-26T08:36:13.570Z,47.20
2018-11-26T08:38:46.043Z,49.33
2018-11-26T08:41:15.330Z,50.17
2018-11-26T08:43:45.113Z,46.50
2018-11-26T08:46:18.458Z,45.00
2018-11-26T08:48:53.125Z,45.20
2018-11-26T08:51:21.574Z,46.63
2018-11-26T08:53:49.970Z,43.50
2018-11-26T08:56:18.268Z,43.37
2018-11-26T08:58:46.576Z,45.67
2018-11-26T09:01:16.786Z,43.80
2018-11-26T09:03:55.708Z,43.37
2018-11-26T09:06:24.435Z,43.67
2018-11-26T09:08:52.761Z,42.50
2018-11-26T09:11:27.905Z,39.90
2018-11-26T09:13:56.871Z,38.70
2018-11-26T09:16:26.837Z,37.83
2018-11-26T09:18:55.523Z,36.07
2018-11-26T09:21:24.223Z,37.37
2018-11-26T09:23:53.320Z,36.80
2018-11-26T09:26:21.788Z,36.27
2018-11-26T09:28:50.680Z,41.10
2018-11-26T09:31:18.949Z,36.27
2018-11-26T09:33:47.288Z,37.13
2018-11-26T09:36:15.612Z,36.93
2018-11-26T09:38:43.889Z,35.20
2018-11-26T09:41:13.106Z,33.67
2018-11-26T09:43:41.381Z,41.43
2018-11-26T09:46:16.399Z,36.10
2018-11-26T09:48:44.674Z,33.27
2018-11-26T09:51:14.343Z,33.33
2018-11-26T09:53:41.643Z,32.43
2018-11-26T09:56:09.938Z,29.77
2018-11-26T09:58:38.237Z,33.03
2018-11-26T10:01:06.982Z,33.23
2018-11-26T10:03:35.326Z,36.83
2018-11-26T10:06:03.587Z,33.97
2018-11-26T10:08:31.875Z,35.97
2018-11-26T10:11:00.258Z,34.87
2018-11-26T10:13:28.542Z,31.83
2018-11-26T10:15:56.844Z,37.33
2018-11-26T10:18:25.135Z,32.10
2018-11-26T10:20:53.412Z,33.30
2018-11-26T10:23:21.775Z,32.13
2018-11-26T10:25:50.089Z,31.33
2018-11-26T10:28:18.404Z,26.57
2018-11-26T10:30:46.793Z,28.80
2018-11-26T10:33:15.157Z,27.57
2018-11-26T10:35:44.061Z,27.43
2018-11-26T10:38:12.376Z,31.17
2018-11-26T10:40:40.982Z,29.80
2018-11-26T10:43:11.634Z,27.60
2018-11-26T10:45:37.911Z,35.87
2018-11-26T10:48:06.718Z,28.87
2018-11-26T10:50:35.170Z,28.23
2018-11-26T10:53:03.532Z,26.70
2018-11-26T10:55:35.830Z,26.77
2018-11-26T10:58:04.412Z,29.00
2018-11-26T11:00:41.018Z,31.40
2018-11-26T11:03:09.357Z,27.30
2018-11-26T11:05:37.899Z,24.67
2018-11-26T11:08:07.037Z,25.20
2018-11-26T11:10:35.395Z,26.17
2018-11-26T11:13:04.003Z,29.63
2018-11-26T11:15:32.434Z,24.40
2018-11-26T11:18:00.756Z,30.27
2018-11-26T11:20:29.709Z,25.70
2018-11-26T11:22:58.037Z,26.10
2018-11-26T11:25:27.161Z,24.23
2018-11-26T11:27:56.438Z,23.57
2018-11-26T11:30:25.760Z,23.87
2018-11-26T11:32:54.068Z,25.43
2018-11-26T11:35:22.385Z,32.70
2018-11-26T11:37:52.256Z,29.60
2018-11-26T11:40:23.677Z,23.73
2018-11-26T11:42:53.175Z,31.00
2018-11-26T11:45:22.043Z,26.20
2018-11-26T11:47:50.349Z,25.57
2018-11-26T11:50:19.825Z,24.27
2018-11-26T11:52:48.379Z,21.33
2018-11-26T11:55:18.732Z,26.13
2018-11-26T11:57:47.222Z,24.20
2018-11-26T12:00:19.307Z,24.37
2018-11-26T12:02:47.709Z,24.70
2018-11-26T12:05:16.196Z,27.27
2018-11-26T12:07:44.955Z,25.80
2018-11-26T12:10:14.092Z,24.47
2018-11-26T12:12:42.454Z,24.63
2018-11-26T12:15:13.136Z,22.70
2018-11-26T12:17:41.803Z,22.20
2018-11-26T12:20:13.029Z,23.50
2018-11-26T12:22:41.688Z,25.30
2018-11-26T12:25:13.165Z,24.13
2018-11-26T12:27:41.504Z,26.83
2018-11-26T12:30:16.288Z,24.57
2018-11-26T12:32:44.588Z,24.23
2018-11-26T12:35:12.866Z,26.63
2018-11-26T12:37:41.759Z,25.53
2018-11-26T12:40:12.271Z,27.57
2018-11-26T12:42:40.585Z,26.83
2018-11-26T12:45:31.439Z,28.30
2018-11-26T12:47:59.846Z,30.03
2018-11-26T12:50:28.187Z,30.37
2018-11-26T12:52:57.334Z,27.53
2018-11-26T12:55:25.964Z,27.67
2018-11-26T12:57:55.931Z,33.97
2018-11-26T13:00:25.436Z,30.07
2018-11-26T13:02:56.830Z,29.90
2018-11-26T13:05:25.128Z,31.10
2018-11-26T13:07:53.420Z,29.27
2018-11-26T13:10:22.513Z,34.37
2018-11-26T13:12:51.500Z,29.60
2018-11-26T13:15:26.372Z,30.13
2018-11-26T13:17:54.699Z,29.93
2018-11-26T13:20:24.820Z,28.73
2018-11-26T13:22:53.623Z,29.03
2018-11-26T13:25:24.100Z,35.17
2018-11-26T13:27:54.505Z,32.30
2018-11-26T13:30:27.814Z,29.00
2018-11-26T13:32:58.287Z,34.90
2018-11-26T13:35:26.661Z,31.17
2018-11-26T13:37:55.009Z,32.03
2018-11-26T13:40:23.414Z,31.43
2018-11-26T13:42:51.988Z,29.23
2018-11-26T13:45:22.912Z,31.43
2018-11-26T13:47:51.231Z,32.43
2018-11-26T13:50:23.876Z,32.80
2018-11-26T13:52:52.354Z,31.93
2018-11-26T13:55:20.728Z,32.30
2018-11-26T13:57:49.135Z,40.20
2018-11-26T14:00:17.830Z,34.17
2018-11-26T14:02:46.760Z,30.17
2018-11-26T14:05:16.160Z,30.70
2018-11-26T14:07:44.964Z,31.60
2018-11-26T14:10:22.590Z,31.53
2018-11-26T14:13:09.561Z,29.27
2018-11-26T14:15:37.934Z,28.93
2018-11-26T14:18:06.296Z,29.47
2018-11-26T14:20:34.676Z,29.17
2018-11-26T14:23:03.073Z,31.70
2018-11-26T14:25:31.393Z,29.57
2018-11-26T14:27:59.753Z,37.33
2018-11-26T14:30:29.038Z,32.80
2018-11-26T14:32:57.437Z,30.60
2018-11-26T14:35:25.967Z,31.60
2018-11-26T14:37:57.403Z,31.80
2018-11-26T14:40:32.338Z,31.77
2018-11-26T14:43:00.685Z,29.43
2018-11-26T14:45:29.041Z,32.23
2018-11-26T14:47:57.312Z,30.93
2018-11-26T14:50:25.698Z,30.17
2018-11-26T14:52:54.350Z,26.23
2018-11-26T14:55:27.450Z,27.47
2018-11-26T14:57:56.158Z,33.83
2018-11-26T15:00:25.433Z,29.93
2018-11-26T15:02:53.914Z,29.93
2018-11-26T15:05:22.240Z,30.07
2018-11-26T15:07:50.571Z,27.83
2018-11-26T15:10:23.311Z,28.57
2018-11-26T15:12:51.820Z,28.20
2018-11-26T15:15:21.928Z,26.73
2018-11-26T15:17:50.405Z,29.00
2018-11-26T15:20:21.537Z,30.00
2018-11-26T15:22:50.529Z,31.20
2018-11-26T15:25:23.069Z,27.27
2018-11-26T15:27:52.659Z,28.80
2018-11-26T15:30:21.729Z,26.50
2018-11-26T15:32:51.081Z,25.97
2018-11-26T15:35:20.676Z,26.43
2018-11-26T15:37:49.001Z,26.30
2018-11-26T15:40:18.364Z,28.70
2018-11-26T15:42:46.672Z,25.50
2018-11-26T15:45:17.093Z,27.10
2018-11-26T15:47:45.784Z,25.17
2018-11-26T15:50:14.746Z,26.03
2018-11-26T15:52:43.432Z,24.37
2018-11-26T15:55:12.989Z,24.70
2018-11-26T15:57:41.561Z,27.83
2018-11-26T16:00:13.687Z,24.70
2018-11-26T16:02:42.690Z,25.13
2018-11-26T16:05:13.338Z,23.20
2018-11-26T16:07:42.173Z,22.13
2018-11-26T16:10:11.893Z,22.53
2018-11-26T16:12:40.544Z,24.80
2018-11-26T16:15:20.927Z,23.93
2018-11-26T16:17:49.712Z,23.10
2018-11-26T16:20:19.645Z,24.13
2018-11-26T16:22:48.333Z,23.80
2018-11-26T16:25:18.906Z,25.27
2018-11-26T16:27:48.081Z,25.87
2018-11-26T16:30:17.306Z,28.50
2018-11-26T16:32:48.301Z,26.90
2018-11-26T16:35:18.180Z,26.50
2018-11-26T16:37:46.544Z,26.87
2018-11-26T16:40:16.239Z,26.77
2018-11-26T16:42:44.676Z,25.87
2018-11-26T16:45:14.461Z,26.90
2018-11-26T16:47:43.337Z,25.30
2018-11-26T16:50:13.083Z,25.27
2018-11-26T16:52:41.475Z,29.03
2018-11-26T16:55:12.225Z,23.43
2018-11-26T16:57:40.711Z,26.27
2018-11-26T17:00:20.452Z,23.60
2018-11-26T17:02:50.060Z,23.00
2018-11-26T17:05:22.421Z,23.50
2018-11-26T17:07:49.715Z,23.43
2018-11-26T17:10:18.149Z,25.80
2018-11-26T17:12:46.609Z,24.27
2018-11-26T17:15:16.417Z,24.43
2018-11-26T17:17:44.836Z,25.63
2018-11-26T17:20:14.348Z,22.77
2018-11-26T17:22:43.162Z,26.43
2018-11-26T17:25:12.892Z,24.53
2018-11-26T17:27:42.065Z,27.60
2018-11-26T17:30:17.868Z,21.53
2018-11-26T17:32:47.196Z,24.33
2018-11-26T17:35:16.264Z,25.57
2018-11-26T17:37:44.616Z,23.33
2018-11-26T17:40:17.486Z,21.83
2018-11-26T17:42:46.573Z,22.63
2018-11-26T17:45:15.679Z,20.87
2018-11-26T17:47:46.438Z,23.17
2018-11-26T17:50:18.408Z,20.93
2018-11-26T17:52:46.979Z,20.27
2018-11-26T17:55:15.585Z,20.00
2018-11-26T17:57:44.679Z,20.17
2018-11-26T18:00:19.513Z,18.27
2018-11-26T18:02:49.207Z,21.60
2018-11-26T18:05:19.279Z,26.97
2018-11-26T18:07:52.688Z,23.57
2018-11-26T18:10:21.117Z,20.77
2018-11-26T18:12:49.557Z,21.73
2018-11-26T18:15:18.015Z,21.03
2018-11-26T18:17:47.436Z,18.83
2018-11-26T18:20:19.019Z,20.23
2018-11-26T18:22:48.809Z,18.30
2018-11-26T18:25:18.158Z,17.57
2018-11-26T18:27:52.748Z,19.93
2018-11-26T18:30:23.251Z,17.70
2018-11-26T18:32:52.056Z,19.47
2018-11-26T18:35:20.949Z,20.27
2018-11-26T18:37:49.342Z,18.40
2018-11-26T18:40:17.886Z,17.97
2018-11-26T18:42:46.199Z,17.43
2018-11-26T18:45:16.832Z,18.93
2018-11-26T18:47:45.984Z,20.57
2018-11-26T18:50:18.605Z,16.90
2018-11-26T18:52:47.806Z,18.93
2018-11-26T18:55:16.234Z,18.13
2018-11-26T18:57:44.613Z,18.33
2018-11-26T19:00:19.149Z,20.33
2018-11-26T19:02:47.840Z,18.23
2018-11-26T19:05:17.122Z,20.17
2018-11-26T19:07:45.517Z,23.67
2018-11-26T19:10:17.498Z,20.03
2018-11-26T19:12:48.801Z,19.77
2018-11-26T19:15:21.036Z,19.43
2018-11-26T19:17:50.389Z,21.27
2018-11-26T19:20:19.298Z,20.67
2018-11-26T19:22:47.699Z,20.27
2018-11-26T19:25:17.557Z,21.93
2018-11-26T19:27:45.861Z,20.53
2018-11-26T19:30:15.016Z,20.07
2018-11-26T19:32:44.624Z,22.33
2018-11-26T19:35:14.377Z,21.87
2018-11-26T19:37:42.854Z,24.30
2018-11-26T19:40:15.357Z,24.03
2018-11-26T19:42:45.302Z,23.87
2018-11-26T19:45:16.608Z,25.03
2018-11-26T19:47:45.292Z,25.70
2018-11-26T19:50:14.801Z,28.07
2018-11-26T19:52:43.792Z,28.03
2018-11-26T19:55:17.887Z,27.33
2018-11-26T19:57:47.194Z,29.67
2018-11-26T20:00:18.672Z,27.87
2018-11-26T20:02:49.871Z,27.90
2018-11-26T20:05:23.674Z,27.77
2018-11-26T20:07:52.071Z,30.00
2018-11-26T20:10:20.517Z,30.50
2018-11-26T20:12:49.493Z,30.60
2018-11-26T20:15:18.571Z,39.27
2018-11-26T20:17:47.710Z,32.00
2018-11-26T20:20:16.250Z,33.47
2018-11-26T20:22:45.289Z,31.73
2018-11-26T20:25:14.495Z,35.87
2018-11-26T20:27:43.504Z,32.37
2018-11-26T20:30:15.545Z,31.60
2018-11-26T20:32:45.464Z,34.10
2018-11-26T20:35:14.107Z,32.37
2018-11-26T20:37:42.747Z,32.77
2018-11-26T20:40:15.541Z,31.73
2018-11-26T20:42:47.680Z,36.27
2018-11-26T20:45:16.697Z,30.63
2018-11-26T20:47:45.928Z,32.87
2018-11-26T20:50:18.971Z,34.60
2018-11-26T20:52:47.388Z,33.43
2018-11-26T20:55:17.207Z,33.50
2018-11-26T20:57:46.643Z,36.10
2018-11-26T21:00:18.256Z,33.43
2018-11-26T21:02:47.756Z,33.57
2018-11-26T21:05:16.118Z,34.10
2018-11-26T21:07:44.549Z,35.00
2018-11-26T21:10:13.953Z,32.00
2018-11-26T21:12:42.282Z,35.17
2018-11-26T21:15:15.347Z,34.00
2018-11-26T21:17:47.513Z,35.77
2018-11-26T21:20:17.556Z,36.60
2018-11-26T21:22:45.878Z,35.63
2018-11-26T21:25:15.529Z,36.23
2018-11-26T21:27:43.948Z,39.37
2018-11-26T21:30:13.751Z,37.00
2018-11-26T21:32:42.183Z,32.87
2018-11-26T21:35:11.565Z,38.90
2018-11-26T21:37:41.157Z,34.57
2018-11-26T21:40:11.729Z,34.60
2018-11-26T21:42:40.058Z,35.20
2018-11-26T21:45:14.790Z,35.10
2018-11-26T21:47:43.175Z,35.00
2018-11-26T21:50:12.885Z,33.23
2018-11-26T21:52:42.223Z,32.20
2018-11-26T21:55:13.756Z,34.67
2018-11-26T21:57:42.370Z,31.60
2018-11-26T22:00:20.852Z,30.03
2018-11-26T22:02:50.139Z,46.93
2018-11-26T22:05:18.732Z,38.27
2018-11-26T22:07:50.639Z,28.57
2018-11-26T22:10:23.747Z,31.27
2018-11-26T22:13:55.435Z,32.77
2018-11-26T22:16:25.606Z,32.63
2018-11-26T22:18:54.959Z,32.10
2018-11-26T22:21:23.919Z,29.20
2018-11-26T22:23:52.603Z,31.27
2018-11-26T22:26:21.217Z,31.53
2018-11-26T22:28:52.369Z,33.83
2018-11-26T22:31:24.733Z,29.80
2018-11-26T22:33:53.930Z,32.07
2018-11-26T22:36:22.620Z,30.17
2018-11-26T22:38:52.646Z,35.13
2018-11-26T22:41:26.530Z,30.70
2018-11-26T22:43:57.863Z,32.00
2018-11-26T22:46:25.603Z,33.13
2018-11-26T22:48:54.934Z,36.20
2018-11-26T22:51:23.560Z,31.73
2018-11-26T22:53:53.401Z,29.77
2018-11-26T22:56:22.465Z,33.17
2018-11-26T22:58:51.111Z,31.17
2018-11-26T23:01:19.421Z,30.30
2018-11-26T23:03:47.793Z,34.80
2018-11-26T23:06:16.103Z,32.83
2018-11-26T23:08:44.386Z,29.30
2018-11-26T23:11:12.804Z,31.47
2018-11-26T23:13:41.165Z,31.77
2018-11-26T23:16:09.519Z,32.30
2018-11-26T23:18:37.877Z,31.83
2018-11-26T23:21:06.224Z,31.93
2018-11-26T23:23:34.580Z,30.53
2018-11-26T23:26:03.012Z,32.00
2018-11-26T23:28:31.462Z,31.47
2018-11-26T23:30:59.815Z,34.20
2018-11-26T23:33:28.180Z,28.83
2018-11-26T23:35:57.286Z,31.27
2018-11-26T23:38:25.589Z,35.90
2018-11-26T23:40:54.295Z,36.20
2018-11-26T23:43:22.687Z,30.90
2018-11-26T23:45:50.954Z,31.53
2018-11-26T23:48:19.904Z,36.87
2018-11-26T23:50:48.235Z,33.57
2018-11-26T23:53:16.617Z,35.83
2018-11-26T23:55:44.965Z,35.23
2018-11-26T23:58:13.340Z,30.87
